Time;durP1;ratioP1;P1;durP2;ratioP2;P2;SDS_P1;SDS_P2;PMS_P1;PMS_P2;Temp;Humidity;BMP_temperature;BMP_pressure;BME280_temperature;BME280_humidity;BME280_pressure;Samples;Min_cycle;Max_cycle;Signal;HPM_P1;HPM_P2
2022/03/09 00:00:35;;;;;;;17.15;11.95;;;;;;;-1.19;62.13;94517.11;1546067;92;21059;-52
2022/03/09 00:03:03;;;;;;;14.07;11.33;;;;;;;-1.22;62.00;94516.52;1547853;92;21127;-52
2022/03/09 00:05:30;;;;;;;24.85;13.93;;;;;;;-1.28;62.63;94521.52;1548717;92;21170;-52
2022/03/09 00:07:57;;;;;;;19.85;12.58;;;;;;;-1.28;63.35;94516.69;1553427;90;21063;-52
2022/03/09 00:10:24;;;;;;;19.27;11.95;;;;;;;-1.23;63.71;94515.76;1546756;91;21169;-51
2022/03/09 00:12:53;;;;;;;28.25;14.50;;;;;;;-1.18;63.83;94513.28;1549558;92;21046;-50
2022/03/09 00:15:20;;;;;;;21.97;13.43;;;;;;;-1.15;63.43;94511.92;1548270;92;21155;-52
2022/03/09 00:17:49;;;;;;;22.48;14.03;;;;;;;-1.18;63.14;94505.95;1539781;91;21092;-52
2022/03/09 00:20:16;;;;;;;19.50;11.95;;;;;;;-1.11;63.00;94503.86;1547631;92;21038;-51
2022/03/09 00:22:45;;;;;;;21.70;13.98;;;;;;;-1.06;62.91;94510.23;1547761;91;21092;-51
2022/03/09 00:25:12;;;;;;;21.80;14.18;;;;;;;-1.10;62.56;94504.81;1548029;91;21055;-51
2022/03/09 00:27:40;;;;;;;26.50;16.05;;;;;;;-1.20;62.48;94502.06;1547480;91;21129;-53
2022/03/09 00:30:09;;;;;;;14.75;11.05;;;;;;;-1.22;62.91;94495.72;1549127;91;20999;-52
2022/03/09 00:32:40;;;;;;;13.68;9.85;;;;;;;-1.18;62.50;94505.95;1547777;92;21578;-53
2022/03/09 00:35:09;;;;;;;32.13;14.70;;;;;;;-1.21;62.01;94499.17;1547431;91;21227;-50
2022/03/09 00:37:36;;;;;;;19.98;10.90;;;;;;;-1.31;61.99;94496.62;1548031;91;21050;-52
2022/03/09 00:40:06;;;;;;;13.18;9.05;;;;;;;-1.43;62.32;94488.88;1547793;92;21039;-53
2022/03/09 00:42:37;;;;;;;15.55;11.12;;;;;;;-1.49;62.43;94482.86;1546798;92;21513;-53
2022/03/09 00:45:06;;;;;;;16.67;11.75;;;;;;;-1.53;62.91;94492.27;1547692;91;21237;-52
2022/03/09 00:47:33;;;;;;;15.53;10.18;;;;;;;-1.52;63.83;94497.86;1547502;91;21205;-51
2022/03/09 00:50:01;;;;;;;16.73;12.25;;;;;;;-1.49;63.33;94499.05;1548088;92;21066;-50
2022/03/09 00:52:28;;;;;;;50.28;18.75;;;;;;;-1.48;63.20;94487.10;1548325;92;21005;-52
2022/03/09 00:54:56;;;;;;;57.98;29.92;;;;;;;-1.46;63.24;94498.28;1548648;92;21015;-51
2022/03/09 00:57:24;;;;;;;11.60;9.15;;;;;;;-1.35;63.21;94485.05;1547531;91;21202;-51
2022/03/09 00:59:52;;;;;;;18.02;12.18;;;;;;;-1.28;62.68;94491.05;1547806;92;21278;-50
2022/03/09 01:02:19;;;;;;;37.63;21.55;;;;;;;-1.32;62.98;94475.44;1547907;92;21256;-51
2022/03/09 01:04:46;;;;;;;69.20;33.55;;;;;;;-1.37;62.83;94477.91;1547635;91;21007;-50
2022/03/09 01:07:15;;;;;;;25.02;15.18;;;;;;;-1.36;62.85;94488.14;1547279;92;21111;-51
2022/03/09 01:09:42;;;;;;;15.55;11.83;;;;;;;-1.35;62.66;94474.25;1542689;91;21070;-53
2022/03/09 01:12:11;;;;;;;20.75;14.18;;;;;;;-1.36;62.33;94478.70;1548330;92;21047;-50
2022/03/09 01:14:39;;;;;;;11.65;10.25;;;;;;;-1.36;61.66;94487.55;1547965;91;21595;-51
2022/03/09 01:17:06;;;;;;;13.38;10.80;;;;;;;-1.42;61.56;94471.53;1547005;92;21465;-54
2022/03/09 01:19:34;;;;;;;12.43;9.58;;;;;;;-1.45;61.78;94482.30;1547568;90;21551;-51
2022/03/09 01:22:03;;;;;;;13.43;10.13;;;;;;;-1.46;61.66;94476.70;1548948;91;21483;-51
2022/03/09 01:24:30;;;;;;;19.05;15.50;;;;;;;-1.43;61.75;94492.13;1547887;92;22098;-50
2022/03/09 01:26:57;;;;;;;15.32;12.37;;;;;;;-1.40;61.59;94478.67;1547844;92;20980;-50
2022/03/09 01:29:25;;;;;;;13.90;10.48;;;;;;;-1.42;61.76;94494.46;1549334;91;21590;-52
2022/03/09 01:31:52;;;;;;;63.83;41.00;;;;;;;-1.38;61.88;94485.02;1547615;92;21112;-51
2022/03/09 01:34:19;;;;;;;12.55;10.50;;;;;;;-1.38;61.28;94483.67;1547945;91;21082;-51
2022/03/09 01:36:49;;;;;;;14.00;11.12;;;;;;;-1.50;60.58;94477.27;1547458;91;22396;-51
2022/03/09 01:39:16;;;;;;;30.45;15.08;;;;;;;-1.57;61.08;94482.05;1547280;91;21204;-51
2022/03/09 01:41:43;;;;;;;26.50;13.35;;;;;;;-1.55;61.09;94478.39;1569993;90;21224;-51
2022/03/09 01:44:15;;;;;;;20.32;14.60;;;;;;;-1.52;60.76;94475.53;1546842;92;21110;-51
2022/03/09 01:46:42;;;;;;;42.08;23.98;;;;;;;-1.44;60.87;94469.01;1548916;92;21118;-51
2022/03/09 01:49:10;;;;;;;16.27;12.43;;;;;;;-1.41;60.47;94467.69;1549094;91;22081;-50
2022/03/09 01:51:40;;;;;;;16.77;12.20;;;;;;;-1.39;60.56;94476.17;1547662;91;21055;-50
2022/03/09 01:54:08;;;;;;;13.70;10.85;;;;;;;-1.42;61.03;94461.30;1547765;92;21028;-51
2022/03/09 01:56:36;;;;;;;14.20;11.38;;;;;;;-1.43;61.19;94470.55;1549013;91;21039;-51
2022/03/09 01:59:05;;;;;;;11.40;9.60;;;;;;;-1.39;61.41;94468.64;1548555;92;21538;-51
2022/03/09 02:01:34;;;;;;;29.23;18.35;;;;;;;-1.32;61.07;94472.14;1547929;91;21031;-52
2022/03/09 02:04:03;;;;;;;14.07;10.90;;;;;;;-1.31;60.78;94462.14;1548784;91;21586;-51
2022/03/09 02:06:34;;;;;;;12.13;10.80;;;;;;;-1.25;60.61;94459.27;1548111;91;21205;-51
2022/03/09 02:11:50;;;;;;;14.87;11.10;;;;;;;-1.09;61.05;94456.46;1547760;92;20145;-52
2022/03/09 02:14:38;;;;;;;13.38;11.78;;;;;;;-1.08;60.77;94451.82;1547966;91;20988;-53
2022/03/09 02:17:16;;;;;;;16.82;12.90;;;;;;;-1.08;60.75;94462.61;1551320;92;21587;-50
2022/03/09 02:19:48;;;;;;;16.48;13.25;;;;;;;-1.11;60.38;94457.98;1547939;92;21055;-50
2022/03/09 02:22:36;;;;;;;12.75;11.03;;;;;;;-1.12;60.12;94459.14;1544265;91;21076;-50
2022/03/09 02:25:07;;;;;;;15.25;11.33;;;;;;;-1.14;60.07;94461.44;1529452;92;21094;-51
2022/03/09 02:27:34;;;;;;;15.00;11.28;;;;;;;-1.17;60.45;94449.47;1530936;93;21146;-50
2022/03/09 02:30:01;;;;;;;38.25;30.52;;;;;;;-1.08;60.39;94465.31;1525757;93;21130;-50
2022/03/09 02:32:29;;;;;;;16.30;13.40;;;;;;;-1.01;60.29;94458.58;1539340;92;21048;-50
2022/03/09 02:34:57;;;;;;;20.02;13.68;;;;;;;-0.98;59.97;94461.89;1538122;92;21032;-52
2022/03/09 02:37:25;;;;;;;13.55;11.28;;;;;;;-0.95;59.77;94461.13;1537502;91;21095;-52
2022/03/09 02:39:52;;;;;;;16.35;12.60;;;;;;;-1.04;62.34;94457.43;1537638;92;21162;-52
2022/03/09 02:42:19;;;;;;;19.57;14.00;;;;;;;-1.18;63.56;94453.33;1539501;92;21464;-51
2022/03/09 02:44:47;;;;;;;11.70;10.40;;;;;;;-1.16;62.82;94461.81;1538760;92;21015;-50
2022/03/09 02:47:14;;;;;;;15.05;11.75;;;;;;;-1.15;60.94;94455.85;1538821;92;21206;-51
2022/03/09 02:49:42;;;;;;;23.90;18.30;;;;;;;-1.23;61.00;94450.22;1537170;92;21151;-52
2022/03/09 02:52:09;;;;;;;21.07;14.28;;;;;;;-1.23;60.97;94455.61;1538539;92;21769;-51
2022/03/09 02:54:38;;;;;;;20.05;14.23;;;;;;;-1.18;60.72;94449.88;1539801;92;21461;-51
2022/03/09 02:57:07;;;;;;;17.30;13.10;;;;;;;-1.18;60.61;94460.66;1521371;92;21766;-51
2022/03/09 02:59:35;;;;;;;28.73;18.30;;;;;;;-1.19;60.54;94463.14;1545997;91;21081;-57
2022/03/09 03:02:04;;;;;;;60.90;29.50;;;;;;;-1.20;60.53;94466.42;1545250;92;20999;-52
2022/03/09 03:04:34;;;;;;;44.80;23.15;;;;;;;-1.17;60.59;94465.66;1548415;92;21566;-51
2022/03/09 03:07:01;;;;;;;19.55;13.55;;;;;;;-1.12;60.84;94460.48;1548285;91;20992;-51
2022/03/09 03:09:30;;;;;;;46.55;23.77;;;;;;;-1.21;58.62;94458.70;1548151;91;21221;-52
2022/03/09 03:11:57;;;;;;;18.55;14.00;;;;;;;-1.34;59.65;94473.70;1548800;91;21040;-51
2022/03/09 03:14:26;;;;;;;19.27;14.45;;;;;;;-1.43;59.13;94466.51;1548223;92;21087;-53
2022/03/09 03:16:54;;;;;;;19.42;12.03;;;;;;;-1.56;59.49;94467.41;1545629;90;21198;-51
2022/03/09 03:19:21;;;;;;;17.75;12.15;;;;;;;-1.62;61.54;94476.23;1547786;91;20999;-51
2022/03/09 03:21:48;;;;;;;22.30;15.63;;;;;;;-1.66;64.65;94468.70;1548713;91;21007;-50
2022/03/09 03:24:18;;;;;;;13.30;11.70;;;;;;;-1.70;61.00;94466.56;1549331;91;21472;-54
2022/03/09 03:26:45;;;;;;;17.23;12.58;;;;;;;-1.73;60.42;94480.21;1549455;91;21087;-52
2022/03/09 03:29:14;;;;;;;33.23;18.52;;;;;;;-1.76;60.36;94459.95;1547467;91;21032;-51
2022/03/09 03:31:42;;;;;;;17.60;13.00;;;;;;;-1.73;60.31;94463.28;1548071;91;21111;-51
2022/03/09 03:34:09;;;;;;;18.85;13.35;;;;;;;-1.69;59.80;94462.72;1542051;90;21015;-51
2022/03/09 03:36:38;;;;;;;22.13;15.65;;;;;;;-1.63;59.63;94460.64;1547588;92;21012;-50
2022/03/09 03:39:07;;;;;;;19.87;14.40;;;;;;;-1.65;58.82;94454.06;1547233;92;21630;-51
2022/03/09 03:41:36;;;;;;;16.62;12.37;;;;;;;-1.72;58.57;94467.52;1548136;92;21122;-51
2022/03/09 03:44:05;;;;;;;15.80;11.40;;;;;;;-1.79;59.01;94474.20;1547788;91;21098;-60
2022/03/09 03:46:33;;;;;;;15.43;10.98;;;;;;;-1.75;58.94;94470.94;1547656;92;21086;-52
2022/03/09 03:49:00;;;;;;;13.28;11.78;;;;;;;-1.70;58.86;94481.39;1532105;92;21177;-59
2022/03/09 03:51:27;;;;;;;15.08;12.40;;;;;;;-1.59;60.00;94482.21;1548035;91;20991;-50
2022/03/09 03:53:55;;;;;;;12.40;11.20;;;;;;;-1.51;60.19;94482.47;1550965;92;21124;-51
2022/03/09 03:56:22;;;;;;;15.93;13.08;;;;;;;-1.49;60.25;94474.77;1547328;91;21104;-51
2022/03/09 03:58:50;;;;;;;15.60;11.78;;;;;;;-1.47;60.34;94477.86;1547390;91;21118;-51
2022/03/09 04:01:17;;;;;;;12.23;10.58;;;;;;;-1.46;61.12;94490.19;1548465;91;21153;-51
2022/03/09 04:03:46;;;;;;;15.68;12.35;;;;;;;-1.51;61.81;94490.55;1547621;92;21063;-52
2022/03/09 04:06:14;;;;;;;22.42;14.05;;;;;;;-1.60;62.34;94499.55;1548793;91;21139;-52
2022/03/09 04:08:44;;;;;;;17.77;13.00;;;;;;;-1.67;62.64;94498.16;1548918;92;21586;-53
2022/03/09 04:11:11;;;;;;;17.40;13.15;;;;;;;-1.65;63.10;94491.81;1547608;91;21667;-52
2022/03/09 04:13:39;;;;;;;20.52;16.20;;;;;;;-1.66;63.05;94497.02;1547921;91;21175;-50
2022/03/09 04:16:07;;;;;;;15.00;11.85;;;;;;;-1.67;63.22;94503.55;1547330;92;21547;-52
2022/03/09 04:18:35;;;;;;;13.20;10.00;;;;;;;-1.74;63.45;94508.88;1548307;92;21211;-55
2022/03/09 04:21:02;;;;;;;13.90;12.07;;;;;;;-1.81;63.29;94518.28;1547962;91;21135;-51
2022/03/09 04:23:29;;;;;;;14.25;10.75;;;;;;;-1.88;63.52;94518.23;1547323;91;21018;-51
2022/03/09 04:25:57;;;;;;;15.58;10.30;;;;;;;-1.90;63.61;94529.18;1548539;91;21023;-51
2022/03/09 04:28:25;;;;;;;10.60;9.50;;;;;;;-1.94;63.28;94520.30;1549156;91;21154;-52
2022/03/09 04:30:52;;;;;;;12.80;10.55;;;;;;;-2.00;62.85;94529.88;1548328;91;21330;-56
2022/03/09 04:33:20;;;;;;;11.73;10.32;;;;;;;-2.06;62.93;94527.31;1547914;91;21047;-52
2022/03/09 04:35:48;;;;;;;12.73;11.18;;;;;;;-2.10;63.06;94524.58;1547871;92;21187;-52
2022/03/09 04:38:15;;;;;;;13.95;10.78;;;;;;;-2.21;62.80;94529.13;1548381;91;21561;-54
2022/03/09 04:40:43;;;;;;;11.65;9.65;;;;;;;-2.31;63.14;94539.80;1548896;92;21585;-52
2022/03/09 04:43:10;;;;;;;14.05;10.80;;;;;;;-2.35;63.19;94541.11;1544899;91;21159;-51
2022/03/09 04:45:38;;;;;;;15.10;11.22;;;;;;;-2.39;63.05;94534.91;1548705;92;21213;-54
2022/03/09 04:48:05;;;;;;;17.15;11.48;;;;;;;-2.43;63.09;94536.80;1547968;92;21091;-51
2022/03/09 04:50:33;;;;;;;12.70;10.53;;;;;;;-2.51;63.10;94546.53;1548423;91;21059;-51
2022/03/09 04:53:01;;;;;;;13.68;10.68;;;;;;;-2.61;63.14;94552.56;1546017;92;21120;-53
2022/03/09 04:55:28;;;;;;;12.43;9.83;;;;;;;-2.74;63.43;94551.26;1548299;92;22068;-51
2022/03/09 04:57:55;;;;;;;12.28;9.30;;;;;;;-2.82;63.78;94559.06;1548424;92;21527;-50
2022/03/09 05:00:23;;;;;;;12.00;10.68;;;;;;;-2.82;63.35;94558.50;1547186;90;21136;-52
2022/03/09 05:02:52;;;;;;;22.82;14.00;;;;;;;-2.85;63.00;94564.59;1547882;92;21095;-52
2022/03/09 05:05:19;;;;;;;12.28;11.03;;;;;;;-2.84;63.13;94564.80;1547177;91;21122;-52
2022/03/09 05:07:47;;;;;;;20.02;12.53;;;;;;;-2.78;63.04;94572.77;1548261;92;21162;-52
2022/03/09 05:10:14;;;;;;;13.80;11.33;;;;;;;-2.71;62.98;94568.80;1544141;91;21050;-51
2022/03/09 05:12:44;;;;;;;13.68;11.12;;;;;;;-2.72;62.78;94571.30;1547634;92;21588;-53
2022/03/09 05:15:12;;;;;;;24.35;13.65;;;;;;;-2.75;62.80;94569.34;1547596;92;21149;-53
2022/03/09 05:17:42;;;;;;;42.50;27.70;;;;;;;-2.75;62.95;94570.69;1548091;91;20995;-54
2022/03/09 05:20:11;;;;;;;13.20;11.18;;;;;;;-2.71;62.89;94575.53;1548523;92;21125;-51
2022/03/09 05:22:40;;;;;;;9.63;8.63;;;;;;;-2.70;62.56;94571.70;1548912;92;21019;-53
2022/03/09 05:25:09;;;;;;;9.40;8.50;;;;;;;-2.74;61.86;94566.85;1548249;92;21007;-52
2022/03/09 05:27:37;;;;;;;9.08;8.18;;;;;;;-2.88;61.49;94581.48;1548033;91;21015;-52
2022/03/09 05:30:06;;;;;;;9.73;8.80;;;;;;;-2.98;61.89;94580.00;1546449;91;21217;-53
2022/03/09 05:32:38;;;;;;;10.25;9.25;;;;;;;-3.00;62.06;94579.59;1548799;91;21155;-55
2022/03/09 05:35:06;;;;;;;10.98;9.78;;;;;;;-2.95;61.79;94573.33;1547847;92;21032;-54
2022/03/09 05:37:41;;;;;;;21.97;13.65;;;;;;;-2.86;61.68;94576.50;1569815;90;21110;-54
2022/03/09 05:40:09;;;;;;;17.62;11.70;;;;;;;-2.83;61.75;94587.12;1547802;92;21044;-53
2022/03/09 05:42:36;;;;;;;20.10;11.00;;;;;;;-2.77;62.24;94578.91;1547312;91;21606;-55
2022/03/09 05:45:06;;;;;;;26.35;15.43;;;;;;;-2.65;61.97;94588.09;1548121;92;22277;-53
2022/03/09 05:47:35;;;;;;;19.42;13.80;;;;;;;-2.59;61.65;94586.62;1549878;91;21051;-53
2022/03/09 05:50:03;;;;;;;20.62;13.78;;;;;;;-2.60;61.67;94589.90;1548642;91;21111;-53
2022/03/09 05:52:30;;;;;;;9.45;8.45;;;;;;;-2.63;61.91;94593.89;1547353;91;21230;-54
2022/03/09 05:54:58;;;;;;;9.48;8.48;;;;;;;-2.71;60.58;94599.76;1547545;91;21527;-53
2022/03/09 05:57:25;;;;;;;9.48;8.50;;;;;;;-2.83;60.20;94595.19;1548042;92;21178;-53
2022/03/09 05:59:54;;;;;;;9.78;8.15;;;;;;;-2.85;60.33;94598.23;1548230;92;21236;-55
2022/03/09 06:02:21;;;;;;;14.00;10.43;;;;;;;-2.78;60.44;94611.80;1549105;91;21158;-52
2022/03/09 06:04:48;;;;;;;12.95;9.53;;;;;;;-2.63;60.57;94614.87;1548638;92;21015;-53
2022/03/09 06:07:16;;;;;;;10.90;9.00;;;;;;;-2.40;60.30;94619.55;1548841;91;21123;-53
2022/03/09 06:09:45;;;;;;;10.38;8.38;;;;;;;-2.13;59.43;94636.38;1548825;91;21182;-58
2022/03/09 06:12:12;;;;;;;22.95;20.95;;;;;;;-2.03;58.80;94630.30;1548467;91;21128;-56
2022/03/09 06:14:39;;;;;;;15.28;11.45;;;;;;;-1.97;57.66;94634.99;1547908;92;21160;-57
2022/03/09 06:17:07;;;;;;;19.40;12.18;;;;;;;-1.97;57.80;94645.77;1548135;92;21594;-56
2022/03/09 06:19:34;;;;;;;19.12;12.85;;;;;;;-1.84;57.90;94648.41;1549187;90;21055;-59
2022/03/09 06:22:04;;;;;;;11.70;9.88;;;;;;;-1.61;57.90;94647.65;1548147;92;22192;-58
2022/03/09 06:24:32;;;;;;;12.05;9.60;;;;;;;-1.44;56.94;94648.38;1547733;91;21161;-57
2022/03/09 06:26:59;;;;;;;10.85;8.93;;;;;;;-1.38;56.47;94644.17;1547381;92;21193;-56
2022/03/09 06:29:27;;;;;;;23.47;14.95;;;;;;;-1.26;56.22;94651.42;1548503;92;21067;-58
2022/03/09 06:31:56;;;;;;;24.67;13.68;;;;;;;-1.12;55.16;94653.44;1549897;91;21062;-57
2022/03/09 06:34:23;;;;;;;12.90;8.90;;;;;;;-0.98;54.64;94667.80;1549468;91;21612;-56
2022/03/09 06:36:51;;;;;;;24.35;16.32;;;;;;;-0.92;54.21;94669.57;1531232;92;21020;-59
2022/03/09 06:39:20;;;;;;;18.10;13.22;;;;;;;-0.86;53.43;94679.64;1525052;92;21112;-59
2022/03/09 06:41:48;;;;;;;18.45;12.45;;;;;;;-0.83;53.04;94676.75;1523562;94;21023;-58
2022/03/09 06:44:16;;;;;;;15.00;12.37;;;;;;;-0.84;53.12;94681.95;1522640;92;21105;-56
2022/03/09 06:46:43;;;;;;;20.32;14.03;;;;;;;-0.88;53.34;94683.30;1523961;90;21158;-61
2022/03/09 06:49:10;;;;;;;16.12;11.75;;;;;;;-0.87;53.36;94690.81;1529658;90;21120;-57
2022/03/09 06:51:38;;;;;;;31.07;17.37;;;;;;;-0.86;53.17;94695.06;1524530;92;21803;-61
2022/03/09 06:54:06;;;;;;;20.20;12.68;;;;;;;-0.86;53.81;94691.80;1518314;91;21199;-57
2022/03/09 06:56:33;;;;;;;14.20;10.58;;;;;;;-0.86;53.81;94697.75;1523363;92;22140;-56
2022/03/09 06:59:00;;;;;;;23.18;13.32;;;;;;;-0.91;54.25;94693.50;1530315;92;21929;-59
2022/03/09 07:01:28;;;;;;;41.70;21.65;;;;;;;-0.89;54.63;94702.56;1523175;92;21718;-58
2022/03/09 07:03:55;;;;;;;36.70;21.75;;;;;;;-0.89;54.89;94699.30;1531499;92;21469;-59
2022/03/09 07:06:23;;;;;;;47.13;26.42;;;;;;;-0.82;54.99;94708.00;1526971;90;21039;-59
2022/03/09 07:08:50;;;;;;;41.88;26.80;;;;;;;-0.72;54.85;94707.30;1532458;91;21044;-59
2022/03/09 07:11:17;;;;;;;35.63;21.97;;;;;;;-0.66;54.71;94715.24;1525947;92;21195;-59
2022/03/09 07:13:46;;;;;;;30.40;18.80;;;;;;;-0.65;54.91;94710.04;1551899;92;21077;-58
2022/03/09 07:16:13;;;;;;;26.70;16.07;;;;;;;-0.61;54.78;94717.61;1530811;91;22265;-58
2022/03/09 07:18:41;;;;;;;26.33;15.70;;;;;;;-0.61;54.83;94714.91;1532786;92;21198;-66
2022/03/09 07:21:08;;;;;;;25.75;16.25;;;;;;;-0.63;54.58;94712.57;1531756;92;21093;-60
2022/03/09 07:23:36;;;;;;;29.77;17.48;;;;;;;-0.77;54.40;94716.52;1536585;91;21183;-63
2022/03/09 07:26:03;;;;;;;19.32;12.90;;;;;;;-0.92;54.88;94711.41;1539806;90;21944;-61
2022/03/09 07:28:30;;;;;;;18.50;14.80;;;;;;;-1.02;55.02;94718.84;1525073;92;21744;-59
2022/03/09 07:30:58;;;;;;;18.65;13.45;;;;;;;-1.01;54.91;94717.70;1526268;92;21514;-61
2022/03/09 07:33:26;;;;;;;22.13;15.38;;;;;;;-1.07;54.79;94715.16;1526586;92;21231;-59
2022/03/09 07:35:56;;;;;;;23.73;15.93;;;;;;;-0.95;54.87;94717.57;1528609;91;21191;-61
2022/03/09 07:38:23;;;;;;;23.83;16.02;;;;;;;-0.76;54.73;94718.67;1540978;91;21795;-60
2022/03/09 07:40:51;;;;;;;24.02;14.45;;;;;;;-0.60;53.89;94712.41;1543301;91;21129;-59
2022/03/09 07:43:18;;;;;;;20.68;14.10;;;;;;;-0.48;53.68;94706.66;1533707;90;21199;-61
2022/03/09 07:45:46;;;;;;;16.62;11.20;;;;;;;-0.33;53.09;94708.30;1533365;92;21543;-61
2022/03/09 07:48:13;;;;;;;14.70;10.38;;;;;;;-0.25;52.38;94705.84;1526867;92;21160;-63
2022/03/09 07:50:41;;;;;;;28.55;16.32;;;;;;;-0.20;51.12;94704.11;1521539;92;21115;-65
2022/03/09 07:53:08;;;;;;;28.00;16.45;;;;;;;-0.23;51.49;94707.58;1534852;91;21022;-63
2022/03/09 07:55:36;;;;;;;34.55;18.90;;;;;;;-0.09;51.48;94702.20;1532136;91;21471;-60
2022/03/09 07:58:03;;;;;;;45.30;23.18;;;;;;;0.19;50.80;94698.46;1534676;90;21117;-60
2022/03/09 08:00:30;;;;;;;27.13;17.10;;;;;;;0.50;49.96;94700.47;1539139;92;21303;-58
2022/03/09 08:02:58;;;;;;;18.77;12.55;;;;;;;0.66;49.65;94698.17;1535242;90;21132;-60
2022/03/09 08:05:26;;;;;;;27.93;15.18;;;;;;;0.79;49.35;94699.33;1529350;91;21629;-62
2022/03/09 08:07:54;;;;;;;15.50;11.15;;;;;;;0.89;48.36;94703.20;1529517;92;21114;-60
2022/03/09 08:10:22;;;;;;;12.58;8.93;;;;;;;0.79;47.78;94710.16;1524747;90;21188;-61
2022/03/09 08:12:50;;;;;;;13.50;9.58;;;;;;;0.73;47.55;94706.29;1535272;90;21157;-61
2022/03/09 08:15:18;;;;;;;29.27;16.87;;;;;;;0.69;47.29;94708.23;1541631;91;21086;-62
2022/03/09 08:17:46;;;;;;;37.33;20.02;;;;;;;0.59;46.81;94702.80;1545308;90;20938;-60
2022/03/09 08:20:13;;;;;;;15.50;11.18;;;;;;;0.53;47.25;94702.41;1543126;91;21127;-61
2022/03/09 08:22:42;;;;;;;11.43;8.85;;;;;;;0.82;46.94;94705.91;1522924;92;21539;-61
2022/03/09 08:25:09;;;;;;;9.70;8.40;;;;;;;1.12;46.49;94708.42;1526299;91;21920;-61
2022/03/09 08:27:37;;;;;;;9.65;7.70;;;;;;;1.31;46.00;94712.08;1524977;92;21110;-60
2022/03/09 08:30:05;;;;;;;12.47;8.48;;;;;;;1.42;45.15;94702.02;1540346;91;21554;-63
2022/03/09 08:32:32;;;;;;;11.78;8.80;;;;;;;1.47;44.27;94700.25;1536160;90;21063;-62
2022/03/09 08:35:00;;;;;;;37.75;20.02;;;;;;;1.38;43.90;94699.11;1512518;92;21059;-61
2022/03/09 08:37:28;;;;;;;49.10;24.65;;;;;;;1.37;44.04;94696.21;1526978;92;21276;-61
2022/03/09 08:39:55;;;;;;;59.10;28.95;;;;;;;1.37;44.02;94697.00;1527874;92;21118;-61
2022/03/09 08:42:23;;;;;;;22.93;13.48;;;;;;;1.63;44.21;94699.25;1536007;92;22127;-59
2022/03/09 08:44:51;;;;;;;12.33;8.73;;;;;;;1.82;43.34;94702.88;1523066;92;21169;-61
2022/03/09 08:47:18;;;;;;;15.32;9.93;;;;;;;1.86;42.82;94702.28;1523875;92;21156;-59
2022/03/09 08:49:45;;;;;;;82.20;26.82;;;;;;;1.94;42.91;94697.03;1522263;91;21200;-60
2022/03/09 08:52:13;;;;;;;20.48;12.30;;;;;;;1.90;42.62;94700.31;1532647;91;21122;-64
2022/03/09 08:54:43;;;;;;;10.20;8.25;;;;;;;1.90;43.18;94693.53;1533516;91;22071;-63
2022/03/09 08:57:10;;;;;;;10.75;7.42;;;;;;;1.95;42.10;94693.91;1552458;90;21106;-62
2022/03/09 08:59:37;;;;;;;10.58;7.25;;;;;;;1.99;41.94;94693.91;1539018;90;21646;-59
2022/03/09 09:02:05;;;;;;;13.55;8.10;;;;;;;1.98;42.02;94696.43;1534917;91;21560;-61
2022/03/09 09:04:32;;;;;;;10.93;8.48;;;;;;;2.06;41.44;94689.23;1542485;90;21098;-63
2022/03/09 09:07:00;;;;;;;12.10;8.10;;;;;;;2.22;41.34;94698.25;1521570;92;21060;-61
2022/03/09 09:09:28;;;;;;;12.43;7.90;;;;;;;2.26;41.35;94696.29;1523754;92;21083;-61
2022/03/09 09:11:55;;;;;;;13.80;10.18;;;;;;;1.95;40.73;94689.09;1521898;92;21104;-61
2022/03/09 09:14:23;;;;;;;16.27;8.83;;;;;;;1.63;41.37;94688.98;1523632;92;21236;-58
2022/03/09 09:16:50;;;;;;;13.68;9.63;;;;;;;1.53;41.38;94696.57;1526785;90;21275;-58
2022/03/09 09:19:17;;;;;;;21.50;12.95;;;;;;;1.67;41.41;94687.05;1536478;92;21606;-61
2022/03/09 09:21:45;;;;;;;15.53;10.53;;;;;;;2.12;41.18;94692.31;1530908;91;21035;-58
2022/03/09 09:24:13;;;;;;;28.62;13.03;;;;;;;2.57;40.50;94686.64;1540017;91;21164;-61
2022/03/09 09:26:40;;;;;;;14.20;9.10;;;;;;;2.86;40.59;94683.90;1542537;91;21278;-62
2022/03/09 09:29:09;;;;;;;11.25;8.38;;;;;;;2.78;40.25;94677.55;1540140;91;21546;-66
2022/03/09 09:31:36;;;;;;;7.97;6.72;;;;;;;2.91;39.74;94682.70;1535864;91;21565;-64
2022/03/09 09:34:03;;;;;;;9.53;7.22;;;;;;;2.99;39.51;94680.11;1531757;90;21102;-61
2022/03/09 09:36:32;;;;;;;9.00;7.03;;;;;;;3.20;39.66;94677.24;1537087;90;21154;-62
2022/03/09 09:39:00;;;;;;;8.38;6.37;;;;;;;3.60;38.86;94682.09;1534099;90;21101;-60
2022/03/09 09:41:28;;;;;;;8.65;7.35;;;;;;;3.94;38.56;94681.53;1535982;91;21097;-60
2022/03/09 09:43:55;;;;;;;8.78;7.08;;;;;;;4.35;37.82;94676.73;1530360;90;21121;-60
2022/03/09 09:46:22;;;;;;;7.53;6.50;;;;;;;4.90;37.72;94684.52;1532175;90;21118;-62
2022/03/09 09:48:50;;;;;;;7.85;6.87;;;;;;;5.41;35.52;94675.33;1536024;92;21038;-64
2022/03/09 09:51:17;;;;;;;7.80;6.60;;;;;;;5.64;34.74;94668.48;1526315;90;22362;-61
2022/03/09 09:53:46;;;;;;;9.25;6.50;;;;;;;5.72;34.71;94676.13;1521307;91;21214;-61
2022/03/09 09:56:14;;;;;;;15.60;8.05;;;;;;;5.87;33.99;94669.84;1514016;93;21186;-55
2022/03/09 09:58:43;;;;;;;5.92;5.30;;;;;;;5.92;33.61;94666.61;1534569;92;21563;-62
2022/03/09 10:01:11;;;;;;;16.45;8.23;;;;;;;6.06;33.01;94666.34;1529179;92;21074;-62
2022/03/09 10:03:38;;;;;;;9.95;6.83;;;;;;;6.43;33.07;94660.52;1525278;91;21554;-60
2022/03/09 10:06:05;;;;;;;8.85;5.80;;;;;;;6.97;32.75;94663.02;1527540;92;21028;-59
2022/03/09 10:08:35;;;;;;;12.35;6.92;;;;;;;7.64;31.71;94666.45;1510717;92;21111;-59
2022/03/09 10:11:04;;;;;;;18.05;8.43;;;;;;;8.02;30.72;94657.02;1534951;90;21188;-58
2022/03/09 10:13:38;;;;;;;13.75;8.00;;;;;;;8.06;30.21;94659.09;1537244;92;20978;-62
2022/03/09 10:16:18;;;;;;;11.30;7.40;;;;;;;7.89;29.77;94665.20;1526951;90;21217;-62
2022/03/09 10:18:54;;;;;;;8.18;6.30;;;;;;;7.88;30.70;94657.42;1534288;90;21200;-64
2022/03/09 10:21:28;;;;;;;10.98;7.35;;;;;;;8.38;31.09;94652.91;1535910;91;21130;-61
2022/03/09 10:24:08;;;;;;;6.47;4.80;;;;;;;9.00;30.80;94643.98;1516386;92;21108;-60
2022/03/09 10:26:43;;;;;;;6.03;4.87;;;;;;;9.68;28.94;94646.88;1525660;92;21137;-60
2022/03/09 10:29:14;;;;;;;4.72;3.90;;;;;;;9.86;28.35;94653.31;1524994;93;21279;-62
2022/03/09 10:31:45;;;;;;;5.42;3.87;;;;;;;10.12;27.73;94652.03;1535157;91;21099;-60
2022/03/09 10:34:19;;;;;;;5.25;4.00;;;;;;;10.36;27.16;94659.25;1529950;91;21138;-62
2022/03/09 10:37:04;;;;;;;5.05;4.05;;;;;;;10.37;26.90;94637.41;1522259;91;21055;-61
2022/03/09 10:39:40;;;;;;;8.25;5.58;;;;;;;10.19;26.90;94656.52;1521218;91;21622;-63
2022/03/09 10:42:25;;;;;;;6.75;4.83;;;;;;;9.93;27.06;94643.45;1515317;92;21182;-61
2022/03/09 10:44:54;;;;;;;5.10;3.90;;;;;;;9.95;26.44;94652.02;1514245;93;21119;-61
2022/03/09 10:47:37;;;;;;;4.95;3.52;;;;;;;10.23;26.36;94646.16;1538296;91;21129;-62
2022/03/09 10:50:21;;;;;;;;;;;;;;;10.31;26.05;94636.45;1538597;90;21170;-60
2022/03/09 10:53:00;;;;;;;7.15;5.17;;;;;;;10.45;27.06;94631.80;1535340;91;20164;-61
2022/03/09 10:55:35;;;;;;;7.37;4.92;;;;;;;10.73;26.25;94628.01;1528676;91;21039;-61
2022/03/09 10:58:22;;;;;;;4.65;3.42;;;;;;;11.03;25.10;94630.75;1528416;92;21143;-61
2022/03/09 11:00:55;;;;;;;6.17;4.30;;;;;;;11.04;24.82;94635.81;1529087;91;21124;-63
2022/03/09 11:03:28;;;;;;;9.80;4.87;;;;;;;11.18;24.42;94626.98;1551173;90;21164;-62
2022/03/09 11:05:58;;;;;;;6.58;4.37;;;;;;;11.26;24.58;94628.84;1524175;91;21078;-61
2022/03/09 11:08:31;;;;;;;6.53;4.12;;;;;;;11.51;24.33;94630.76;1526432;90;21814;-61
2022/03/09 11:10:58;;;;;;;5.03;3.57;;;;;;;12.09;24.39;94627.97;1528539;92;21096;-59
2022/03/09 11:13:36;;;;;;;5.90;3.85;;;;;;;12.38;23.41;94626.27;1538944;90;21844;-62
2022/03/09 11:16:07;;;;;;;9.28;5.22;;;;;;;12.35;22.90;94627.20;1505612;92;21109;-61
2022/03/09 11:18:34;;;;;;;6.25;4.30;;;;;;;12.50;22.83;94635.01;1532098;90;21111;-62
2022/03/09 11:21:08;;;;;;;7.78;5.05;;;;;;;12.24;22.43;94624.12;1529588;90;21063;-64
2022/03/09 11:23:40;;;;;;;9.48;6.08;;;;;;;12.01;22.70;94622.59;1504855;92;21097;-59
2022/03/09 11:26:15;;;;;;;8.70;5.30;;;;;;;12.05;23.16;94618.46;1535127;92;21031;-61
2022/03/09 11:28:43;;;;;;;7.03;4.65;;;;;;;12.31;23.41;94619.70;1529586;90;21087;-61
2022/03/09 11:31:14;;;;;;;9.20;4.08;;;;;;;12.76;23.26;94614.09;1537903;90;21089;-60
2022/03/09 11:33:50;;;;;;;7.33;5.00;;;;;;;13.48;22.96;94606.94;1525926;92;21260;-63